Haines, AK

7:32 PM AKST on December 22, 2014 (GMT -0900)
Haines | Change Station
CLOSE
Current Station
Airport
Location: Haines,
Elevation: 16 ft
Nearby Weather Stations

Elev 16 ft 59.24 °N, 135.51 °W | Updated 16 minutes ago

Light Rain
Light Rain
34 °F
Feels Like 30 °F
N
5
Wind Variable Wind from NNW

Today
High -- | Low -- °F
--% Chance of Precip.
Yesterday
High -- | Low -- °F
Precip. -- in
8:57 AM 3:03 PM
New Moon, 2% visible
Pressure 30.02 in
Visibility 10.0 miles
Clouds Overcast 1300 ft
Windchill 30 °F
Dew Point 32 °F
Humidity 92%
Rainfall 0.02 in
Snow Depth Not available.
UV 0 out of 12
Pollen Not available.
Air Quality Not available.
Flu Activity Not available.
SPECI PAHN 230416Z AUTO 33004KT 10SM -RA OVC013 01/00 A3002 RMK AO2 UPB12E16RAB16 P0000 T00110000 TSNO

More Conditions Fewer Conditions

Pressure 30.02 in
Visibility 10.0 miles
Clouds Overcast 1300 ft
Windchill 30 °F
Dew Point 32 °F
Humidity 92%
Rainfall 0.02 in
Snow Depth Not available.
UV 0 out of 12
Pollen Not available.
Air Quality Not available.
Flu Activity Not available.
SPECI PAHN 230416Z AUTO 33004KT 10SM -RA OVC013 01/00 A3002 RMK AO2 UPB12E16RAB16 P0000 T00110000 TSNO

More Conditions Fewer Conditions

10-Day Weather Forecast

Almanac

Astronomy

Dec. 22, 2014 Rise Set
Actual Time
Civil Twilight
Nautical Twilight
Astronomical Twilight
Moon
Length of Visible Light
Length of Day
Tomorrow will be .
, % of the Moon is Illuminated

Today's Extremes

State Highs State Lows

Community

WunderPhotos

Upload Photos

1,779,778 photos uploaded!

WunderBlogs® & News

Nearby

Air Quality

  Air Quality AQ Index Pollutant
Not available.

Snow Depth

Station Depth Elevation

Earthquake Activity

City Distance Mag. Time & Date
Minimum magnitude displayed is 2.5.

Coastal Water Temperatures

Place Temperature

Nearby Weather Stations